sensor_id;sensor_type;location;lat;lon;timestamp;pressure;altitude;pressure_sealevel;temperature;humidity
67377;BME280;54261;46.086;6.588;2024-02-16T00:00:31;92482.31;;;10.73;31.18
67377;BME280;54261;46.086;6.588;2024-02-16T00:05:34;92508.16;;;10.78;31.45
67377;BME280;54261;46.086;6.588;2024-02-16T00:10:37;92507.69;;;10.84;30.90
67377;BME280;54261;46.086;6.588;2024-02-16T00:15:40;92487.50;;;10.69;30.63
67377;BME280;54261;46.086;6.588;2024-02-16T00:20:42;92507.88;;;10.70;30.98
67377;BME280;54261;46.086;6.588;2024-02-16T00:25:44;92484.47;;;10.97;31.14
67377;BME280;54261;46.086;6.588;2024-02-16T00:30:47;92509.41;;;11.54;30.15
67377;BME280;54261;46.086;6.588;2024-02-16T00:35:50;92499.31;;;11.51;29.37
67377;BME280;54261;46.086;6.588;2024-02-16T00:40:54;92487.44;;;10.96;29.62
67377;BME280;54261;46.086;6.588;2024-02-16T00:45:56;92493.72;;;11.65;29.53
67377;BME280;54261;46.086;6.588;2024-02-16T00:50:58;92512.94;;;10.37;31.52
67377;BME280;54261;46.086;6.588;2024-02-16T00:56:01;92501.59;;;11.31;30.75
67377;BME280;54261;46.086;6.588;2024-02-16T01:01:03;92483.25;;;11.42;30.59
67377;BME280;54261;46.086;6.588;2024-02-16T01:06:06;92509.84;;;11.26;31.75
67377;BME280;54261;46.086;6.588;2024-02-16T01:11:10;92511.81;;;11.56;30.26
67377;BME280;54261;46.086;6.588;2024-02-16T01:16:12;92512.78;;;11.81;30.04
67377;BME280;54261;46.086;6.588;2024-02-16T01:21:14;92509.72;;;11.14;31.23
67377;BME280;54261;46.086;6.588;2024-02-16T01:26:16;92425.66;;;10.57;30.78
67377;BME280;54261;46.086;6.588;2024-02-16T01:31:18;92520.84;;;11.42;30.51
67377;BME280;54261;46.086;6.588;2024-02-16T01:36:20;92532.16;;;11.66;31.13
67377;BME280;54261;46.086;6.588;2024-02-16T01:41:22;92528.75;;;11.39;31.25
67377;BME280;54261;46.086;6.588;2024-02-16T01:46:25;92526.91;;;11.69;30.57
67377;BME280;54261;46.086;6.588;2024-02-16T01:51:28;92530.03;;;11.32;31.30
67377;BME280;54261;46.086;6.588;2024-02-16T01:56:30;92491.78;;;10.61;32.28
67377;BME280;54261;46.086;6.588;2024-02-16T02:01:33;92531.00;;;11.37;31.50
67377;BME280;54261;46.086;6.588;2024-02-16T02:06:35;92506.44;;;10.99;31.69
67377;BME280;54261;46.086;6.588;2024-02-16T02:11:37;92485.09;;;11.03;32.01
67377;BME280;54261;46.086;6.588;2024-02-16T02:16:39;92513.09;;;11.41;31.79
67377;BME280;54261;46.086;6.588;2024-02-16T02:21:56;92499.16;;;10.82;32.28
67377;BME280;54261;46.086;6.588;2024-02-16T02:26:58;92502.34;;;10.67;32.18
67377;BME280;54261;46.086;6.588;2024-02-16T02:32:00;92507.84;;;10.79;32.12
67377;BME280;54261;46.086;6.588;2024-02-16T02:37:02;92507.38;;;10.77;32.79
67377;BME280;54261;46.086;6.588;2024-02-16T02:42:05;92478.94;;;10.94;31.89
67377;BME280;54261;46.086;6.588;2024-02-16T02:47:09;92485.53;;;11.14;32.22
67377;BME280;54261;46.086;6.588;2024-02-16T02:52:11;92504.19;;;11.10;32.36
67377;BME280;54261;46.086;6.588;2024-02-16T02:57:12;92407.66;;;10.48;32.13
67377;BME280;54261;46.086;6.588;2024-02-16T03:02:14;92503.00;;;11.38;31.72
67377;BME280;54261;46.086;6.588;2024-02-16T03:07:16;92521.59;;;11.04;31.63
67377;BME280;54261;46.086;6.588;2024-02-16T03:12:18;92479.56;;;11.08;30.90
67377;BME280;54261;46.086;6.588;2024-02-16T03:17:20;92504.16;;;11.19;30.84
67377;BME280;54261;46.086;6.588;2024-02-16T03:22:22;92522.94;;;11.37;31.53
67377;BME280;54261;46.086;6.588;2024-02-16T03:27:24;92515.34;;;11.39;32.17
67377;BME280;54261;46.086;6.588;2024-02-16T03:32:26;92516.44;;;11.38;32.33
67377;BME280;54261;46.086;6.588;2024-02-16T03:37:28;92503.63;;;11.43;31.62
67377;BME280;54261;46.086;6.588;2024-02-16T03:42:30;92515.22;;;11.26;32.14
67377;BME280;54261;46.086;6.588;2024-02-16T03:47:33;92472.97;;;10.70;31.96
67377;BME280;54261;46.086;6.588;2024-02-16T03:52:35;92510.88;;;10.60;33.48
67377;BME280;54261;46.086;6.588;2024-02-16T03:57:37;92509.59;;;10.48;33.43
67377;BME280;54261;46.086;6.588;2024-02-16T04:02:39;92531.06;;;10.57;33.02
67377;BME280;54261;46.086;6.588;2024-02-16T04:07:41;92532.00;;;10.88;32.65
67377;BME280;54261;46.086;6.588;2024-02-16T04:12:43;92525.22;;;10.99;32.56
67377;BME280;54261;46.086;6.588;2024-02-16T04:17:46;92545.44;;;10.70;32.56
67377;BME280;54261;46.086;6.588;2024-02-16T04:22:48;92540.25;;;10.65;32.50
67377;BME280;54261;46.086;6.588;2024-02-16T04:27:50;92545.44;;;10.61;32.31
67377;BME280;54261;46.086;6.588;2024-02-16T04:32:52;92539.91;;;10.75;32.46
67377;BME280;54261;46.086;6.588;2024-02-16T04:37:55;92531.69;;;10.63;32.21
67377;BME280;54261;46.086;6.588;2024-02-16T04:42:56;92526.97;;;10.33;32.79
67377;BME280;54261;46.086;6.588;2024-02-16T04:48:03;92540.69;;;10.32;33.04
67377;BME280;54261;46.086;6.588;2024-02-16T04:53:05;92530.25;;;9.55;34.05
67377;BME280;54261;46.086;6.588;2024-02-16T04:58:07;92534.41;;;9.70;34.65
67377;BME280;54261;46.086;6.588;2024-02-16T05:03:11;92510.78;;;9.89;34.19
67377;BME280;54261;46.086;6.588;2024-02-16T05:08:14;92525.25;;;9.71;34.75
67377;BME280;54261;46.086;6.588;2024-02-16T05:13:15;92516.25;;;9.67;33.87
67377;BME280;54261;46.086;6.588;2024-02-16T05:18:17;92526.81;;;9.63;34.21
67377;BME280;54261;46.086;6.588;2024-02-16T05:23:19;92529.38;;;9.77;33.88
67377;BME280;54261;46.086;6.588;2024-02-16T05:28:21;92528.38;;;10.04;33.73
67377;BME280;54261;46.086;6.588;2024-02-16T05:33:23;92533.41;;;10.15;33.78
67377;BME280;54261;46.086;6.588;2024-02-16T05:38:25;92522.06;;;10.18;34.22
67377;BME280;54261;46.086;6.588;2024-02-16T05:43:42;92526.97;;;10.42;33.80
67377;BME280;54261;46.086;6.588;2024-02-16T05:48:45;92508.84;;;10.39;33.76
67377;BME280;54261;46.086;6.588;2024-02-16T05:53:48;92529.66;;;10.69;33.73
67377;BME280;54261;46.086;6.588;2024-02-16T05:58:50;92523.81;;;10.75;33.52
67377;BME280;54261;46.086;6.588;2024-02-16T06:03:52;92538.47;;;10.43;34.02
67377;BME280;54261;46.086;6.588;2024-02-16T06:08:53;92551.13;;;10.51;33.57
67377;BME280;54261;46.086;6.588;2024-02-16T06:13:55;92545.44;;;10.79;32.70
67377;BME280;54261;46.086;6.588;2024-02-16T06:18:57;92535.34;;;10.58;33.25
67377;BME280;54261;46.086;6.588;2024-02-16T06:23:59;92528.84;;;10.51;33.70
67377;BME280;54261;46.086;6.588;2024-02-16T06:29:01;92493.69;;;10.26;33.19
67377;BME280;54261;46.086;6.588;2024-02-16T06:34:03;92563.59;;;10.82;32.25
67377;BME280;54261;46.086;6.588;2024-02-16T06:39:05;92569.59;;;10.88;31.88
67377;BME280;54261;46.086;6.588;2024-02-16T06:44:07;92555.09;;;11.07;31.38
67377;BME280;54261;46.086;6.588;2024-02-16T06:49:09;92568.31;;;11.21;31.53
67377;BME280;54261;46.086;6.588;2024-02-16T06:54:11;92558.50;;;11.34;31.05
67377;BME280;54261;46.086;6.588;2024-02-16T06:59:13;92583.41;;;11.60;30.46
67377;BME280;54261;46.086;6.588;2024-02-16T07:04:15;92581.63;;;10.99;32.43
67377;BME280;54261;46.086;6.588;2024-02-16T07:09:17;92587.91;;;11.21;32.23
67377;BME280;54261;46.086;6.588;2024-02-16T07:14:19;92607.34;;;11.09;33.30
67377;BME280;54261;46.086;6.588;2024-02-16T07:19:21;92596.75;;;10.95;33.11
67377;BME280;54261;46.086;6.588;2024-02-16T07:24:23;92603.72;;;10.96;33.41
67377;BME280;54261;46.086;6.588;2024-02-16T07:29:25;92600.38;;;11.26;32.80
67377;BME280;54261;46.086;6.588;2024-02-16T07:34:27;92620.75;;;11.36;32.73
67377;BME280;54261;46.086;6.588;2024-02-16T07:39:30;92606.25;;;11.28;33.21
67377;BME280;54261;46.086;6.588;2024-02-16T07:44:32;92611.38;;;11.59;33.48
67377;BME280;54261;46.086;6.588;2024-02-16T07:49:37;92611.69;;;11.58;33.55
67377;BME280;54261;46.086;6.588;2024-02-16T07:54:40;92626.13;;;11.36;34.27
67377;BME280;54261;46.086;6.588;2024-02-16T07:59:42;92630.16;;;11.77;33.95
67377;BME280;54261;46.086;6.588;2024-02-16T08:04:48;92633.59;;;11.95;33.64
67377;BME280;54261;46.086;6.588;2024-02-16T08:09:50;92636.97;;;12.13;33.87
67377;BME280;54261;46.086;6.588;2024-02-16T08:14:52;92594.44;;;12.15;33.34
67377;BME280;54261;46.086;6.588;2024-02-16T08:19:54;92643.38;;;12.39;33.41
67377;BME280;54261;46.086;6.588;2024-02-16T08:24:56;92645.25;;;12.68;32.63
67377;BME280;54261;46.086;6.588;2024-02-16T08:29:58;92641.47;;;12.69;32.20
67377;BME280;54261;46.086;6.588;2024-02-16T08:35:00;92625.16;;;12.66;32.67
67377;BME280;54261;46.086;6.588;2024-02-16T08:40:03;92664.16;;;13.32;31.94
67377;BME280;54261;46.086;6.588;2024-02-16T08:45:06;92664.97;;;13.45;30.76
67377;BME280;54261;46.086;6.588;2024-02-16T08:50:09;92672.09;;;11.43;33.05
67377;BME280;54261;46.086;6.588;2024-02-16T08:55:11;92616.34;;;12.56;31.13
67377;BME280;54261;46.086;6.588;2024-02-16T09:00:14;92674.41;;;12.66;30.82
67377;BME280;54261;46.086;6.588;2024-02-16T09:05:18;92673.91;;;13.58;30.43
67377;BME280;54261;46.086;6.588;2024-02-16T09:10:20;92689.63;;;13.90;30.38
67377;BME280;54261;46.086;6.588;2024-02-16T09:15:21;92689.66;;;14.02;29.12
67377;BME280;54261;46.086;6.588;2024-02-16T09:20:23;92696.28;;;12.65;29.06
67377;BME280;54261;46.086;6.588;2024-02-16T09:25:25;92703.03;;;9.66;33.43
67377;BME280;54261;46.086;6.588;2024-02-16T09:30:27;92704.03;;;11.09;32.08
67377;BME280;54261;46.086;6.588;2024-02-16T09:35:29;92711.34;;;8.82;36.91
67377;BME280;54261;46.086;6.588;2024-02-16T09:40:31;92693.50;;;7.79;37.23
67377;BME280;54261;46.086;6.588;2024-02-16T09:45:33;92698.91;;;9.00;35.76
67377;BME280;54261;46.086;6.588;2024-02-16T09:50:35;92705.88;;;9.24;34.31
67377;BME280;54261;46.086;6.588;2024-02-16T09:55:37;92720.28;;;8.35;37.29
67377;BME280;54261;46.086;6.588;2024-02-16T10:00:40;92732.75;;;7.65;40.47
67377;BME280;54261;46.086;6.588;2024-02-16T10:05:43;92736.09;;;9.61;37.26
67377;BME280;54261;46.086;6.588;2024-02-16T10:10:45;92707.19;;;11.55;32.35
67377;BME280;54261;46.086;6.588;2024-02-16T10:15:46;92737.53;;;9.90;34.33
67377;BME280;54261;46.086;6.588;2024-02-16T10:20:49;92761.22;;;12.07;31.68
67377;BME280;54261;46.086;6.588;2024-02-16T10:25:51;92733.19;;;9.49;34.59
67377;BME280;54261;46.086;6.588;2024-02-16T10:30:58;92764.72;;;9.98;34.07
67377;BME280;54261;46.086;6.588;2024-02-16T10:36:01;92759.94;;;8.47;36.66
67377;BME280;54261;46.086;6.588;2024-02-16T10:41:04;92767.59;;;10.33;34.88
67377;BME280;54261;46.086;6.588;2024-02-16T10:46:07;92767.41;;;9.98;35.64
67377;BME280;54261;46.086;6.588;2024-02-16T10:51:15;92764.97;;;9.87;36.56
67377;BME280;54261;46.086;6.588;2024-02-16T10:56:27;92776.06;;;11.07;34.79
67377;BME280;54261;46.086;6.588;2024-02-16T11:01:38;92782.28;;;12.61;32.97
67377;BME280;54261;46.086;6.588;2024-02-16T11:06:52;92789.19;;;10.28;35.81
67377;BME280;54261;46.086;6.588;2024-02-16T11:12:01;92785.75;;;10.76;35.85
67377;BME280;54261;46.086;6.588;2024-02-16T11:17:11;92783.50;;;10.61;36.72
67377;BME280;54261;46.086;6.588;2024-02-16T11:22:19;92777.94;;;12.30;34.75
67377;BME280;54261;46.086;6.588;2024-02-16T11:27:22;92784.94;;;13.30;32.93
67377;BME280;54261;46.086;6.588;2024-02-16T11:32:24;92764.44;;;12.86;32.78
67377;BME280;54261;46.086;6.588;2024-02-16T11:37:26;92766.47;;;11.41;35.25
67377;BME280;54261;46.086;6.588;2024-02-16T11:42:28;92768.97;;;9.53;38.64
67377;BME280;54261;46.086;6.588;2024-02-16T11:47:30;92757.25;;;9.63;39.25
67377;BME280;54261;46.086;6.588;2024-02-16T11:52:33;92766.31;;;11.20;36.74
67377;BME280;54261;46.086;6.588;2024-02-16T11:57:38;92767.88;;;11.83;36.78
67377;BME280;54261;46.086;6.588;2024-02-16T12:02:40;92765.13;;;12.36;34.37
67377;BME280;54261;46.086;6.588;2024-02-16T12:07:42;92752.63;;;12.70;34.06
67377;BME280;54261;46.086;6.588;2024-02-16T12:12:44;92770.78;;;7.57;44.11
67377;BME280;54261;46.086;6.588;2024-02-16T12:17:46;92732.88;;;9.28;40.33
67377;BME280;54261;46.086;6.588;2024-02-16T12:22:48;92753.91;;;9.57;40.09
67377;BME280;54261;46.086;6.588;2024-02-16T12:27:50;92738.16;;;12.44;37.05
67377;BME280;54261;46.086;6.588;2024-02-16T12:32:52;92742.16;;;14.38;32.72
67377;BME280;54261;46.086;6.588;2024-02-16T12:37:54;92710.69;;;14.67;31.47
67377;BME280;54261;46.086;6.588;2024-02-16T12:42:56;92733.41;;;12.41;36.29
67377;BME280;54261;46.086;6.588;2024-02-16T12:47:58;92734.22;;;14.67;32.47
67377;BME280;54261;46.086;6.588;2024-02-16T12:53:01;92730.78;;;13.02;35.23
67377;BME280;54261;46.086;6.588;2024-02-16T12:58:05;92722.91;;;12.19;35.70
67377;BME280;54261;46.086;6.588;2024-02-16T13:03:07;92720.47;;;13.46;34.56
67377;BME280;54261;46.086;6.588;2024-02-16T13:08:09;92725.97;;;12.86;33.74
67377;BME280;54261;46.086;6.588;2024-02-16T13:13:11;92695.50;;;10.00;39.46
67377;BME280;54261;46.086;6.588;2024-02-16T13:18:14;92719.56;;;12.61;35.41
67377;BME280;54261;46.086;6.588;2024-02-16T13:23:16;92720.66;;;11.29;37.71
67377;BME280;54261;46.086;6.588;2024-02-16T13:28:18;92720.16;;;11.18;38.95
67377;BME280;54261;46.086;6.588;2024-02-16T13:33:20;92723.47;;;11.59;37.45
67377;BME280;54261;46.086;6.588;2024-02-16T13:38:22;92729.94;;;13.10;34.85
67377;BME280;54261;46.086;6.588;2024-02-16T13:43:24;92714.97;;;12.61;35.26
67377;BME280;54261;46.086;6.588;2024-02-16T13:48:26;92719.91;;;14.79;31.84
67377;BME280;54261;46.086;6.588;2024-02-16T13:53:28;92712.16;;;12.88;35.19
67377;BME280;54261;46.086;6.588;2024-02-16T13:58:31;92708.63;;;10.51;40.33
67377;BME280;54261;46.086;6.588;2024-02-16T14:03:35;92701.34;;;10.33;40.71
67377;BME280;54261;46.086;6.588;2024-02-16T14:08:38;92714.47;;;14.41;34.18
67377;BME280;54261;46.086;6.588;2024-02-16T14:13:40;92719.78;;;15.00;33.09
67377;BME280;54261;46.086;6.588;2024-02-16T14:18:42;92720.59;;;11.91;37.76
67377;BME280;54261;46.086;6.588;2024-02-16T14:23:44;92717.47;;;10.42;40.34
67377;BME280;54261;46.086;6.588;2024-02-16T14:28:46;92714.31;;;10.49;40.17
67377;BME280;54261;46.086;6.588;2024-02-16T14:33:48;92706.72;;;14.40;34.87
67377;BME280;54261;46.086;6.588;2024-02-16T14:38:50;92696.22;;;12.43;36.97
67377;BME280;54261;46.086;6.588;2024-02-16T14:43:56;92729.47;;;12.39;37.54
67377;BME280;54261;46.086;6.588;2024-02-16T14:48:57;92730.25;;;11.74;38.78
67377;BME280;54261;46.086;6.588;2024-02-16T14:54:00;92742.44;;;11.10;39.53
67377;BME280;54261;46.086;6.588;2024-02-16T14:59:03;92748.69;;;12.20;37.64
67377;BME280;54261;46.086;6.588;2024-02-16T15:04:06;92710.88;;;13.15;34.62
67377;BME280;54261;46.086;6.588;2024-02-16T15:09:08;92747.25;;;12.70;36.22
67377;BME280;54261;46.086;6.588;2024-02-16T15:14:12;92757.44;;;13.67;34.10
67377;BME280;54261;46.086;6.588;2024-02-16T15:19:19;92761.72;;;10.63;38.27
67377;BME280;54261;46.086;6.588;2024-02-16T15:24:21;92765.84;;;11.97;37.57
67377;BME280;54261;46.086;6.588;2024-02-16T15:29:23;92763.13;;;12.54;35.74
67377;BME280;54261;46.086;6.588;2024-02-16T15:34:25;92772.66;;;13.20;34.67
67377;BME280;54261;46.086;6.588;2024-02-16T15:39:27;92777.53;;;14.12;32.38
67377;BME280;54261;46.086;6.588;2024-02-16T15:44:29;92769.25;;;13.32;33.91
67377;BME280;54261;46.086;6.588;2024-02-16T15:49:31;92784.66;;;12.63;34.47
67377;BME280;54261;46.086;6.588;2024-02-16T15:54:33;92788.25;;;14.33;32.09
67377;BME280;54261;46.086;6.588;2024-02-16T15:59:35;92800.25;;;14.57;31.38
67377;BME280;54261;46.086;6.588;2024-02-16T16:04:37;92801.16;;;15.61;30.90
67377;BME280;54261;46.086;6.588;2024-02-16T16:09:39;92804.72;;;16.18;30.02
67377;BME280;54261;46.086;6.588;2024-02-16T16:14:41;92805.31;;;16.56;29.18
67377;BME280;54261;46.086;6.588;2024-02-16T16:19:43;92809.16;;;16.55;28.94
67377;BME280;54261;46.086;6.588;2024-02-16T16:24:45;92816.59;;;16.58;28.58
67377;BME280;54261;46.086;6.588;2024-02-16T16:29:47;92805.97;;;16.82;28.47
67377;BME280;54261;46.086;6.588;2024-02-16T16:34:51;92822.22;;;16.98;28.44
67377;BME280;54261;46.086;6.588;2024-02-16T16:39:54;92822.84;;;17.07;28.03
67377;BME280;54261;46.086;6.588;2024-02-16T16:44:56;92835.25;;;17.08;28.32
67377;BME280;54261;46.086;6.588;2024-02-16T16:49:58;92825.28;;;16.96;28.23
67377;BME280;54261;46.086;6.588;2024-02-16T16:55:00;92825.94;;;16.61;28.57
67377;BME280;54261;46.086;6.588;2024-02-16T17:00:02;92821.94;;;16.26;29.06
67377;BME280;54261;46.086;6.588;2024-02-16T17:05:07;92819.34;;;15.89;29.69
67377;BME280;54261;46.086;6.588;2024-02-16T17:10:11;92847.44;;;15.72;29.94
67377;BME280;54261;46.086;6.588;2024-02-16T17:15:15;92846.59;;;15.43;30.73
67377;BME280;54261;46.086;6.588;2024-02-16T17:20:20;92858.41;;;15.38;30.55
67377;BME280;54261;46.086;6.588;2024-02-16T17:25:27;92868.75;;;15.11;30.13
67377;BME280;54261;46.086;6.588;2024-02-16T17:30:29;92873.09;;;14.78;30.71
67377;BME280;54261;46.086;6.588;2024-02-16T17:35:33;92845.81;;;14.59;30.68
67377;BME280;54261;46.086;6.588;2024-02-16T17:40:36;92849.34;;;14.17;31.63
67377;BME280;54261;46.086;6.588;2024-02-16T17:45:38;92869.03;;;14.72;30.72
67377;BME280;54261;46.086;6.588;2024-02-16T17:50:40;92865.16;;;15.07;29.57
67377;BME280;54261;46.086;6.588;2024-02-16T17:55:42;92853.94;;;14.71;30.51
67377;BME280;54261;46.086;6.588;2024-02-16T18:00:44;92844.38;;;14.61;30.43
67377;BME280;54261;46.086;6.588;2024-02-16T18:05:46;92885.78;;;14.65;31.53
67377;BME280;54261;46.086;6.588;2024-02-16T18:10:48;92896.41;;;14.49;31.38
67377;BME280;54261;46.086;6.588;2024-02-16T18:15:50;92896.31;;;14.58;31.18
67377;BME280;54261;46.086;6.588;2024-02-16T18:20:52;92900.28;;;14.61;30.92
67377;BME280;54261;46.086;6.588;2024-02-16T18:25:54;92907.00;;;14.88;30.50
67377;BME280;54261;46.086;6.588;2024-02-16T18:30:56;92904.78;;;15.03;30.54
67377;BME280;54261;46.086;6.588;2024-02-16T18:35:58;92911.09;;;14.61;30.94
67377;BME280;54261;46.086;6.588;2024-02-16T18:41:01;92914.59;;;13.97;32.05
67377;BME280;54261;46.086;6.588;2024-02-16T18:46:03;92918.47;;;13.57;32.65
67377;BME280;54261;46.086;6.588;2024-02-16T18:51:06;92922.81;;;13.02;34.23
67377;BME280;54261;46.086;6.588;2024-02-16T18:56:09;92925.50;;;13.02;34.43
67377;BME280;54261;46.086;6.588;2024-02-16T19:01:13;92925.31;;;13.16;34.47
67377;BME280;54261;46.086;6.588;2024-02-16T19:06:19;92934.38;;;13.80;33.14
67377;BME280;54261;46.086;6.588;2024-02-16T19:11:21;92915.31;;;14.07;32.28
67377;BME280;54261;46.086;6.588;2024-02-16T19:16:24;92939.66;;;13.38;33.79
67377;BME280;54261;46.086;6.588;2024-02-16T19:21:26;92947.78;;;13.68;32.89
67377;BME280;54261;46.086;6.588;2024-02-16T19:26:28;92930.75;;;13.76;32.51
67377;BME280;54261;46.086;6.588;2024-02-16T19:31:32;92942.94;;;13.05;33.94
67377;BME280;54261;46.086;6.588;2024-02-16T19:36:35;92953.69;;;13.13;33.68
67377;BME280;54261;46.086;6.588;2024-02-16T19:41:44;92951.00;;;13.52;33.16
67377;BME280;54261;46.086;6.588;2024-02-16T19:46:46;92953.59;;;13.40;33.06
67377;BME280;54261;46.086;6.588;2024-02-16T19:51:48;92933.53;;;12.46;34.80
67377;BME280;54261;46.086;6.588;2024-02-16T19:56:49;92947.91;;;12.58;35.09
67377;BME280;54261;46.086;6.588;2024-02-16T20:01:51;92972.25;;;11.92;36.83
67377;BME280;54261;46.086;6.588;2024-02-16T20:06:53;92984.97;;;12.53;35.63
67377;BME280;54261;46.086;6.588;2024-02-16T20:11:56;92987.56;;;11.73;37.29
67377;BME280;54261;46.086;6.588;2024-02-16T20:16:59;92989.59;;;11.68;37.65
67377;BME280;54261;46.086;6.588;2024-02-16T20:22:01;93001.13;;;12.53;35.91
67377;BME280;54261;46.086;6.588;2024-02-16T20:27:04;93012.38;;;12.81;34.84
67377;BME280;54261;46.086;6.588;2024-02-16T20:32:06;93019.16;;;13.14;34.45
67377;BME280;54261;46.086;6.588;2024-02-16T20:37:08;93005.44;;;13.37;33.70
67377;BME280;54261;46.086;6.588;2024-02-16T20:42:10;93035.91;;;13.37;33.69
67377;BME280;54261;46.086;6.588;2024-02-16T20:47:12;93032.97;;;13.60;33.56
67377;BME280;54261;46.086;6.588;2024-02-16T20:52:14;92983.13;;;13.27;32.79
67377;BME280;54261;46.086;6.588;2024-02-16T20:57:16;93046.59;;;12.63;34.91
67377;BME280;54261;46.086;6.588;2024-02-16T21:02:18;93054.47;;;12.24;35.62
67377;BME280;54261;46.086;6.588;2024-02-16T21:07:21;93057.06;;;12.82;34.81
67377;BME280;54261;46.086;6.588;2024-02-16T21:12:24;93064.97;;;13.05;34.80
67377;BME280;54261;46.086;6.588;2024-02-16T21:17:26;93080.47;;;13.26;34.34
67377;BME280;54261;46.086;6.588;2024-02-16T21:22:28;93075.38;;;13.42;34.24
67377;BME280;54261;46.086;6.588;2024-02-16T21:27:30;93081.16;;;13.62;33.85
67377;BME280;54261;46.086;6.588;2024-02-16T21:32:32;93082.19;;;13.39;34.08
67377;BME280;54261;46.086;6.588;2024-02-16T21:37:34;93088.38;;;13.40;34.02
67377;BME280;54261;46.086;6.588;2024-02-16T21:42:36;93094.88;;;13.30;34.17
67377;BME280;54261;46.086;6.588;2024-02-16T21:47:39;93099.66;;;13.33;34.27
67377;BME280;54261;46.086;6.588;2024-02-16T21:52:40;93104.88;;;13.29;34.51
67377;BME280;54261;46.086;6.588;2024-02-16T21:57:42;93114.25;;;13.32;34.49
67377;BME280;54261;46.086;6.588;2024-02-16T22:02:44;93114.53;;;13.31;34.61
67377;BME280;54261;46.086;6.588;2024-02-16T22:07:46;93118.38;;;13.12;34.86
67377;BME280;54261;46.086;6.588;2024-02-16T22:12:48;93110.97;;;12.24;36.09
67377;BME280;54261;46.086;6.588;2024-02-16T22:17:50;93126.03;;;12.43;35.60
67377;BME280;54261;46.086;6.588;2024-02-16T22:22:52;93128.19;;;11.51;37.16
67377;BME280;54261;46.086;6.588;2024-02-16T22:27:54;93115.53;;;11.20;37.33
67377;BME280;54261;46.086;6.588;2024-02-16T22:32:56;93126.28;;;11.52;37.04
67377;BME280;54261;46.086;6.588;2024-02-16T22:37:58;93131.84;;;11.55;36.86
67377;BME280;54261;46.086;6.588;2024-02-16T22:43:00;93147.31;;;11.81;36.19
67377;BME280;54261;46.086;6.588;2024-02-16T22:48:02;93142.56;;;11.01;37.57
67377;BME280;54261;46.086;6.588;2024-02-16T22:53:05;93137.06;;;10.69;38.42
67377;BME280;54261;46.086;6.588;2024-02-16T22:58:07;93153.44;;;10.82;38.22
67377;BME280;54261;46.086;6.588;2024-02-16T23:03:12;93156.19;;;10.40;38.83
67377;BME280;54261;46.086;6.588;2024-02-16T23:08:14;93144.53;;;10.58;38.30
67377;BME280;54261;46.086;6.588;2024-02-16T23:13:16;93160.31;;;10.60;38.47
67377;BME280;54261;46.086;6.588;2024-02-16T23:18:18;93146.84;;;10.88;38.39
67377;BME280;54261;46.086;6.588;2024-02-16T23:23:22;93167.28;;;11.12;38.06
67377;BME280;54261;46.086;6.588;2024-02-16T23:28:23;93147.88;;;11.15;37.63
67377;BME280;54261;46.086;6.588;2024-02-16T23:33:25;93100.41;;;10.51;37.92
67377;BME280;54261;46.086;6.588;2024-02-16T23:38:27;93148.19;;;11.13;37.41
67377;BME280;54261;46.086;6.588;2024-02-16T23:43:29;93184.94;;;11.27;37.87
67377;BME280;54261;46.086;6.588;2024-02-16T23:48:31;93172.53;;;11.40;37.57
67377;BME280;54261;46.086;6.588;2024-02-16T23:53:33;93188.44;;;11.50;37.50
67377;BME280;54261;46.086;6.588;2024-02-16T23:58:35;93191.66;;;11.61;37.24
